Airfield :
LOGIN :

Register | Disclaimer

   EN    FR    IT 

 










Legend :    VFR   Marginal VFR   IFR   Intensive IFR   Very Intensive IFR
Visi :
Ceiling :
>= 8 km
>= 3000ft
5 to 8 km
1000 to 3000 ft
1500m to 5 km
500 to 1000 ft
800 to 1500m
200 to 500 ft
< 800m
< 200 ft
Symbols :   Thunderstorms  Fog  Heavy snow  Heavy precipitations  Wind > 20 kt
SIGMETs :     Misc.  Thunderstorms  Icing  Turbulence  Mountain Waves  Volcanic Ashes






- Airport Elevation : 446 ft
- IATA code : VNE


LFRV - Vannes-Meucon

CURRENT METAR :
  • 120530Z AUTO 19005KT 170V230 9999 -RA SCT008/// BKN040/// BKN050/// ///TCU 07/07 Q1004

EXPIRED METARs :
  • 120500Z AUTO 19005KT 160V220 9000 -RA BKN010/// BKN018/// BKN026/// ///CB 07/06 Q1005
  • 120430Z AUTO 20003KT 170V230 7000 -RA BKN014 OVC020 06/06 Q1006
  • 120400Z AUTO VRB03KT 8000 -RA FEW010/// BKN017/// BKN022/// ///TCU 05/04 Q1006
  • 120330Z AUTO 20003KT 9999 -DZ FEW020/// BKN031/// BKN044/// ///TCU 05/04 Q1007
  • 120300Z AUTO VRB03KT 9999 -RA FEW025/// BKN033/// BKN044/// ///TCU 05/04 Q1008

TAF N/A



MET'MAP, your aeronautical weather chart ! - Copyright ORBIFLY December 2007 - Disclaimer

ORBIFLY MET'MAP TEAM :

Programming & Development : Alexandra Zaïnal
Concept & original design : Baudouin d'Aumeries
Assistance for programming : Marc-Olivier Méhu
Technical & hardware support : Manuel Goepfert

Contact : metmap@orbifly.com




SOURCES & CREDITS :

   NOAA